Time;durP1;ratioP1;P1;durP2;ratioP2;P2;SDS_P1;SDS_P2;PMS_P1;PMS_P2;Temp;Humidity;BMP_temperature;BMP_pressure;BME280_temperature;BME280_humidity;BME280_pressure;Samples;Min_cycle;Max_cycle;Signal;HPM_P1;HPM_P2
2022/09/11 00:03:37;;;;;;;;;;;13.40;99.90;;;12.42;100.00;95761.31;10488867;28;3327;-70
2022/09/11 00:08:40;;;;;;;;;;;13.40;99.90;;;12.42;100.00;95755.13;10490110;28;2717;-72
2022/09/11 00:13:42;;;;;;;;;;;13.40;99.90;;;12.39;100.00;95745.69;10483052;28;2753;-73
2022/09/11 00:18:45;;;;;;;;;;;13.40;99.90;;;12.38;100.00;95749.50;10489571;28;3187;-73
2022/09/11 00:23:49;;;;;;;;;;;13.40;99.90;;;12.45;100.00;95744.56;10487178;28;3112;-73
2022/09/11 00:28:51;;;;;;;;;;;13.40;99.90;;;12.39;100.00;95734.91;10491347;28;2686;-72
2022/09/11 00:33:54;;;;;;;;;;;13.40;99.90;;;12.37;100.00;95747.88;10485435;28;2754;-73
2022/09/11 00:38:57;;;;;;;;;;;13.30;99.90;;;12.36;100.00;95740.91;10489108;28;2852;-72
2022/09/11 00:44:01;;;;;;;;;;;13.40;99.90;;;12.40;100.00;95736.53;10467862;28;2733;-71
2022/09/11 00:49:03;;;;;;;;;;;13.40;99.90;;;12.48;100.00;95731.63;10490170;28;2686;-73
2022/09/11 00:54:06;;;;;;;;;;;13.40;99.90;;;12.49;100.00;95733.22;10481446;28;2752;-71
2022/09/11 00:59:09;;;;;;;;;;;13.30;99.90;;;12.52;100.00;95738.03;10489190;28;2608;-73
2022/09/11 01:04:12;;;;;;;;;;;13.50;99.90;;;12.50;100.00;95740.22;10467181;28;3230;-76
2022/09/11 01:09:15;;;;;;;;;;;13.50;99.90;;;12.51;100.00;95739.91;10488416;28;2714;-78
2022/09/11 01:14:18;;;;;;;;;;;13.50;99.90;;;12.54;100.00;95730.47;10479785;28;2766;-73
2022/09/11 01:19:20;;;;;;;;;;;13.40;99.90;;;12.53;100.00;95729.63;10483878;28;2661;-72
2022/09/11 01:24:23;;;;;;;;;;;13.40;99.90;;;12.52;100.00;95727.25;10486436;28;2757;-73
2022/09/11 01:29:26;;;;;;;;;;;13.40;99.90;;;12.57;100.00;95724.50;10488378;28;2581;-72
2022/09/11 01:34:28;;;;;;;;;;;13.50;99.90;;;12.57;100.00;95729.88;10485858;28;2850;-71
2022/09/11 01:39:31;;;;;;;;;;;13.50;99.90;;;12.53;100.00;95735.03;10483661;28;2597;-72
2022/09/11 01:44:34;;;;;;;;;;;13.50;99.90;;;12.50;100.00;95730.22;10486341;28;3162;-71
2022/09/11 01:49:37;;;;;;;;;;;13.40;99.90;;;12.50;100.00;95726.72;10481668;28;3123;-73
2022/09/11 01:54:40;;;;;;;;;;;11.90;99.90;;;12.53;100.00;95728.84;10485169;28;3195;-75
2022/09/11 01:59:43;;;;;;;;;;;13.40;99.90;;;12.61;100.00;95720.94;10481862;28;2582;-71
2022/09/11 02:04:46;;;;;;;;;;;13.50;99.90;;;12.62;100.00;95719.03;10483710;28;2834;-71
2022/09/11 02:09:49;;;;;;;;;;;13.60;99.90;;;12.55;100.00;95730.19;10483766;28;2601;-70
2022/09/11 02:14:52;;;;;;;;;;;13.50;99.90;;;12.52;100.00;95727.25;10481102;28;2737;-70
2022/09/11 02:19:55;;;;;;;;;;;13.50;99.90;;;12.47;100.00;95720.03;10485983;28;2685;-70
2022/09/11 02:24:58;;;;;;;;;;;13.50;99.90;;;12.49;100.00;95723.22;10481369;28;2633;-70
2022/09/11 02:30:00;;;;;;;;;;;13.40;99.90;;;12.49;100.00;95722.44;10483098;28;2645;-72
2022/09/11 02:35:03;;;;;;;;;;;13.30;99.90;;;12.42;100.00;95728.16;10484847;28;2748;-71
2022/09/11 02:40:07;;;;;;;;;;;13.50;99.90;;;12.38;100.00;95719.03;10484548;28;2647;-71
2022/09/11 02:45:11;;;;;;;;;;;13.40;99.90;;;12.37;100.00;95712.84;10480045;28;2654;-73
2022/09/11 02:50:14;;;;;;;;;;;13.30;99.90;;;12.35;100.00;95715.03;10463815;28;3202;-71
2022/09/11 02:55:17;;;;;;;;;;;13.30;99.90;;;12.38;100.00;95711.75;10484797;28;2733;-72
2022/09/11 03:00:20;;;;;;;;;;;13.30;99.90;;;12.44;100.00;95712.50;10480386;28;3239;-71
2022/09/11 03:05:24;;;;;;;;;;;13.40;99.90;;;12.38;100.00;95710.94;10459657;28;3152;-73
2022/09/11 03:10:27;;;;;;;;;;;13.40;99.90;;;12.39;100.00;95713.34;10479186;28;2843;-71
2022/09/11 03:15:30;;;;;;;;;;;13.30;99.90;;;12.26;100.00;95707.84;10476276;28;3235;-73
2022/09/11 03:20:33;;;;;;;;;;;13.30;99.90;;;12.22;100.00;95713.00;10482086;28;2593;-71
2022/09/11 03:25:36;;;;;;;;;;;13.20;99.90;;;12.19;100.00;95713.56;10480512;28;3332;-72
2022/09/11 03:30:40;;;;;;;;;;;13.20;99.90;;;12.18;100.00;95711.97;10478930;28;2753;-72
2022/09/11 03:35:43;;;;;;;;;;;13.10;99.90;;;12.14;100.00;95705.53;10485669;28;2845;-72
2022/09/11 03:40:46;;;;;;;;;;;13.10;99.90;;;12.16;100.00;95704.16;10486152;28;2682;-70
2022/09/11 03:45:49;;;;;;;;;;;12.80;99.90;;;12.20;100.00;95709.78;10482864;28;2726;-71
2022/09/11 03:50:53;;;;;;;;;;;13.10;99.90;;;12.21;100.00;95705.19;10484198;28;3280;-72
2022/09/11 03:55:56;;;;;;;;;;;13.20;99.90;;;12.21;100.00;95700.59;10484876;28;2702;-72
2022/09/11 04:00:59;;;;;;;;;;;13.50;99.90;;;12.26;100.00;95699.75;10490300;28;2801;-72
2022/09/11 04:06:05;;;;;;;;;;;13.70;99.90;;;12.26;100.00;95700.56;10487113;28;3151;-70
2022/09/11 04:11:08;;;;;;;;;;;;;;;12.25;100.00;95706.25;10483961;28;2718;-70
2022/09/11 04:16:11;;;;;;;;;;;13.20;99.90;;;12.27;100.00;95694.06;10489656;28;2749;-71
2022/09/11 04:21:14;;;;;;;;;;;13.40;99.90;;;12.29;100.00;95686.53;10486960;28;2794;-70
2022/09/11 04:26:17;;;;;;;;;;;;;;;12.24;100.00;95691.16;10471275;28;3159;-72
2022/09/11 04:31:20;;;;;;;;;;;13.50;99.90;;;12.23;100.00;95697.66;10482268;28;2545;-71
2022/09/11 04:36:25;;;;;;;;;;;13.20;99.90;;;12.21;100.00;95695.22;10485918;28;2746;-71
2022/09/11 04:41:28;;;;;;;;;;;13.10;99.90;;;12.22;100.00;95707.63;10486574;28;3243;-71
2022/09/11 04:46:31;;;;;;;;;;;13.20;99.90;;;12.26;100.00;95700.56;10482299;28;3238;-71
2022/09/11 04:51:34;;;;;;;;;;;13.10;99.90;;;12.22;100.00;95698.75;10489099;28;2757;-70
2022/09/11 04:56:37;;;;;;;;;;;13.20;99.90;;;12.21;100.00;95706.00;10495101;28;2625;-74
2022/09/11 05:01:40;;;;;;;;;;;13.30;99.90;;;12.25;100.00;95706.25;10490612;28;2617;-70
2022/09/11 05:06:47;;;;;;;;;;;13.20;99.90;;;12.29;100.00;95705.38;10488743;28;2848;-70
2022/09/11 05:11:50;;;;;;;;;;;13.10;99.90;;;12.34;100.00;95715.28;10489312;28;3215;-72
2022/09/11 05:16:53;;;;;;;;;;;13.30;99.90;;;12.40;100.00;95716.84;10489070;28;2671;-74
2022/09/11 05:21:56;;;;;;;;;;;13.60;99.90;;;12.44;100.00;95707.91;10488870;28;2827;-76
2022/09/11 05:27:00;;;;;;;;;;;13.30;99.90;;;12.49;100.00;95711.66;10484884;28;2696;-71
2022/09/11 05:32:04;;;;;;;;;;;13.40;99.90;;;12.50;100.00;95713.25;10477158;28;2714;-72
2022/09/11 05:37:07;;;;;;;;;;;13.40;99.90;;;12.52;100.00;95711.06;10482050;28;2804;-73
2022/09/11 05:42:10;;;;;;;;;;;13.50;99.90;;;12.55;100.00;95715.91;10480380;28;3198;-71
2022/09/11 05:47:16;;;;;;;;;;;13.50;99.90;;;12.67;100.00;95724.38;10483707;28;2731;-73
2022/09/11 05:52:18;;;;;;;;;;;13.60;99.90;;;12.74;100.00;95746.41;10483767;28;2574;-73
2022/09/11 05:57:21;;;;;;;;;;;13.60;99.90;;;12.80;100.00;95734.47;10481147;28;2686;-73
2022/09/11 06:02:24;;;;;;;;;;;13.70;99.90;;;12.92;100.00;95736.75;10476913;28;2730;-73
2022/09/11 06:07:27;;;;;;;;;;;13.70;99.90;;;12.97;100.00;95734.78;10485253;28;2730;-73
2022/09/11 06:12:29;;;;;;;;;;;13.80;99.90;;;13.04;100.00;95741.72;10489395;28;3192;-73
2022/09/11 06:17:33;;;;;;;;;;;;;;;13.17;100.00;95749.13;10477050;28;2622;-73
2022/09/11 06:22:36;;;;;;;;;;;13.90;99.90;;;13.23;100.00;95756.06;10479720;28;2706;-72
2022/09/11 06:27:39;;;;;;;;;;;;;;;13.27;100.00;95754.41;10491069;28;2617;-73
2022/09/11 06:32:42;;;;;;;;;;;15.10;99.90;;;13.45;100.00;95744.72;10485523;28;2741;-73
2022/09/11 06:37:45;;;;;;;;;;;14.20;99.90;;;13.56;100.00;95750.78;10476488;28;2748;-72
2022/09/11 06:42:48;;;;;;;;;;;14.40;99.90;;;13.62;100.00;95745.00;10480035;28;2690;-75
2022/09/11 06:47:51;;;;;;;;;;;14.40;99.90;;;13.62;100.00;95760.41;10482807;28;2753;-71
2022/09/11 06:52:53;;;;;;;;;;;14.40;99.90;;;13.68;100.00;95760.03;10479776;28;2799;-70
2022/09/11 06:57:56;;;;;;;;;;;14.50;99.90;;;13.68;100.00;95765.44;10479443;28;2768;-69
2022/09/11 07:03:00;;;;;;;;;;;14.50;99.90;;;13.68;100.00;95768.16;10482580;28;3131;-74
2022/09/11 07:08:04;;;;;;;;;;;14.60;99.90;;;13.67;100.00;95768.41;10474820;28;3211;-71
2022/09/11 07:13:07;;;;;;;;;;;14.50;99.90;;;13.72;100.00;95765.63;10485502;28;3300;-70
2022/09/11 07:18:11;;;;;;;;;;;14.50;99.90;;;14.28;100.00;95770.16;10483476;28;3116;-70
2022/09/11 07:23:13;;;;;;;;;;;14.80;99.90;;;14.18;100.00;95778.41;10467874;28;3171;-70
2022/09/11 07:28:16;;;;;;;;;;;15.00;99.90;;;14.30;100.00;95781.47;10489849;28;2701;-70
2022/09/11 07:33:19;;;;;;;;;;;15.00;99.90;;;14.26;100.00;95781.25;10486778;28;2765;-73
2022/09/11 07:38:22;;;;;;;;;;;15.10;99.90;;;14.52;100.00;95789.75;10491039;28;3307;-72
2022/09/11 07:43:25;;;;;;;;;;;15.10;99.90;;;14.75;100.00;95789.88;10486995;28;3188;-71
2022/09/11 07:48:28;;;;;;;;;;;15.30;99.90;;;15.11;100.00;95793.50;10492992;28;3213;-71
2022/09/11 07:53:31;;;;;;;;;;;15.60;99.90;;;15.46;100.00;95795.75;10486948;28;2751;-72
2022/09/11 07:58:34;;;;;;;;;;;16.00;99.90;;;15.97;100.00;95797.38;10486316;28;2734;-72
2022/09/11 08:03:37;;;;;;;;;;;16.30;99.90;;;15.97;100.00;95800.91;10487362;28;3160;-70
2022/09/11 08:08:40;;;;;;;;;;;16.60;99.90;;;15.95;100.00;95803.09;10488990;28;2585;-70
2022/09/11 08:13:43;;;;;;;;;;;16.50;99.90;;;16.10;100.00;95804.66;10463970;28;3560;-69
2022/09/11 08:18:46;;;;;;;;;;;16.60;99.90;;;15.63;100.00;95804.09;10488213;28;2775;-70
2022/09/11 08:23:49;;;;;;;;;;;16.50;99.90;;;15.92;100.00;95825.41;10467423;28;3152;-70
2022/09/11 08:28:52;;;;;;;;;;;16.60;99.90;;;15.88;100.00;95829.84;10483591;28;2568;-68
2022/09/11 08:33:55;;;;;;;;;;;16.60;99.90;;;15.49;100.00;95839.31;10489496;28;2917;-70
2022/09/11 08:38:59;;;;;;;;;;;16.40;99.90;;;15.41;100.00;95842.75;10486143;28;3195;-71
2022/09/11 08:44:01;;;;;;;;;;;16.20;99.90;;;15.48;100.00;95847.75;10481014;28;2588;-74
2022/09/11 08:49:04;;;;;;;;;;;16.10;99.90;;;15.17;100.00;95842.16;10499744;28;3128;-74
2022/09/11 08:54:07;;;;;;;;;;;16.00;99.90;;;15.23;100.00;95849.88;10466141;28;2792;-77
2022/09/11 08:59:10;;;;;;;;;;;16.00;99.90;;;15.48;100.00;95853.16;10482543;28;2737;-69
2022/09/11 09:04:13;;;;;;;;;;;16.10;99.90;;;15.53;100.00;95848.44;10466188;28;2737;-69
2022/09/11 09:09:17;;;;;;;;;;;16.20;99.90;;;15.61;100.00;95858.56;10476473;28;3167;-69
2022/09/11 09:14:20;;;;;;;;;;;16.30;99.90;;;15.27;100.00;95861.72;10482171;28;3258;-69
2022/09/11 09:19:23;;;;;;;;;;;16.20;99.90;;;14.82;100.00;95877.72;10482759;28;2671;-68
2022/09/11 09:24:26;;;;;;;;;;;15.80;99.90;;;14.64;100.00;95875.06;10485634;28;2681;-68
2022/09/11 09:29:29;;;;;;;;;;;15.50;99.90;;;14.78;100.00;95881.31;10481913;28;2749;-69
2022/09/11 09:34:33;;;;;;;;;;;15.60;99.90;;;14.84;100.00;95878.22;10482791;28;2694;-71
2022/09/11 09:39:36;;;;;;;;;;;15.60;99.90;;;15.04;100.00;95884.34;10481101;28;2625;-68
2022/09/11 09:44:40;;;;;;;;;;;15.80;99.90;;;15.14;100.00;95893.09;10482046;28;3176;-72
2022/09/11 09:49:43;;;;;;;;;;;15.90;99.90;;;15.23;100.00;95889.69;10479907;28;2645;-76
2022/09/11 09:54:46;;;;;;;;;;;15.90;99.90;;;15.14;100.00;95884.16;10480965;28;2678;-71
2022/09/11 09:59:49;;;;;;;;;;;16.00;99.90;;;15.06;100.00;95893.78;10467179;28;2848;-69
2022/09/11 10:04:53;;;;;;;;;;;15.90;99.90;;;14.90;100.00;95897.06;10494152;28;2672;-71
2022/09/11 10:09:57;;;;;;;;;;;15.80;99.90;;;14.86;100.00;95894.94;10479434;28;2638;-69
2022/09/11 10:15:00;;;;;;;;;;;15.60;99.90;;;14.90;100.00;95897.06;10480697;28;2792;-69
2022/09/11 10:20:04;;;;;;;;;;;15.70;99.90;;;14.37;100.00;95892.75;10482910;28;2673;-72
2022/09/11 10:25:07;;;;;;;;;;;15.40;99.90;;;14.46;100.00;95914.53;10461732;28;3261;-72
2022/09/11 10:30:09;;;;;;;;;;;15.30;99.90;;;14.95;100.00;95911.31;10483818;28;3505;-75
2022/09/11 10:35:12;;;;;;;;;;;15.50;99.90;;;15.44;100.00;95901.72;10486560;28;3139;-72
2022/09/11 10:40:16;;;;;;;;;;;15.80;99.90;;;16.08;100.00;95904.47;10476253;28;2733;-71
2022/09/11 10:45:20;;;;;;;;;;;16.20;99.90;;;16.69;100.00;95893.00;10477963;28;2601;-71
2022/09/11 10:50:28;;;;;;;;;;;16.80;99.90;;;16.54;100.00;95901.53;10470207;28;3295;-71
2022/09/11 10:55:30;;;;;;;;;;;17.20;99.90;;;16.87;100.00;95899.38;10490325;28;3179;-71
2022/09/11 11:00:34;;;;;;;;;;;17.20;99.90;;;16.98;100.00;95894.47;10492881;28;3211;-70
2022/09/11 11:05:37;;;;;;;;;;;17.40;99.90;;;17.17;100.00;95897.78;10482506;28;3136;-73
2022/09/11 11:10:41;;;;;;;;;;;17.60;99.90;;;17.74;100.00;95897.84;10463623;28;3156;-73
2022/09/11 11:15:44;;;;;;;;;;;18.00;99.90;;;17.63;100.00;95890.31;10480796;28;3259;-72
2022/09/11 11:20:47;;;;;;;;;;;18.20;99.90;;;17.17;100.00;95897.78;10477557;28;2828;-72
2022/09/11 11:25:50;;;;;;;;;;;17.90;99.90;;;17.26;100.00;95903.25;10481170;28;2803;-70
2022/09/11 11:30:54;;;;;;;;;;;17.80;99.90;;;17.21;100.00;95903.41;10465077;28;2561;-71
2022/09/11 11:35:56;;;;;;;;;;;17.90;99.90;;;15.82;100.00;95915.06;10486281;28;2617;-72
2022/09/11 11:41:02;;;;;;;;;;;17.10;99.90;;;15.74;100.00;95921.22;10479535;28;2625;-73
2022/09/11 11:46:04;;;;;;;;;;;16.50;99.90;;;16.04;100.00;95930.63;10478253;28;3167;-74
2022/09/11 11:51:07;;;;;;;;;;;16.60;99.90;;;16.44;100.00;95926.97;10466948;28;2718;-72
2022/09/11 11:56:13;;;;;;;;;;;16.90;99.90;;;17.11;100.00;95931.59;10474725;28;3164;-73
2022/09/11 12:01:15;;;;;;;;;;;17.50;99.90;;;18.02;100.00;95938.41;10492520;28;2585;-71
2022/09/11 12:06:19;;;;;;;;;;;18.00;99.90;;;18.22;100.00;95932.34;10489440;28;3144;-71
2022/09/11 12:11:22;;;;;;;;;;;18.60;99.90;;;17.43;100.00;95932.41;10488304;28;2773;-71
2022/09/11 12:16:27;;;;;;;;;;;18.20;99.90;;;16.96;100.00;95929.28;10485798;28;2876;-74
2022/09/11 12:21:31;;;;;;;;;;;17.80;99.90;;;16.85;100.00;95934.16;10496538;28;3194;-73
2022/09/11 12:26:34;;;;;;;;;;;17.60;99.90;;;17.27;100.00;95923.88;10466094;28;2641;-72
2022/09/11 12:31:36;;;;;;;;;;;17.80;99.90;;;17.73;100.00;95926.16;10488581;28;2722;-71
2022/09/11 12:36:39;;;;;;;;;;;18.20;99.90;;;17.68;100.00;95926.28;10485703;28;2746;-72
2022/09/11 12:41:42;;;;;;;;;;;18.20;99.90;;;17.27;100.00;95924.69;10485537;28;3240;-70
2022/09/11 12:46:46;;;;;;;;;;;18.00;99.90;;;16.74;100.00;95922.78;10484179;28;2753;-73
2022/09/11 12:51:49;;;;;;;;;;;17.70;99.90;;;16.83;100.00;95922.81;10485141;28;2757;-71
2022/09/11 12:56:53;;;;;;;;;;;17.40;99.90;;;16.83;100.00;95922.81;10487303;28;2709;-73
2022/09/11 13:02:07;;;;;;;;;;;17.50;99.90;;;16.19;100.00;95925.66;10485006;28;2630;-75
2022/09/11 13:07:10;;;;;;;;;;;17.30;99.90;;;15.44;100.00;95936.94;10482374;28;3199;-75
2022/09/11 13:12:13;;;;;;;;;;;16.70;99.90;;;15.00;100.00;95935.56;10486839;28;2585;-76
2022/09/11 13:17:17;;;;;;;;;;;16.20;99.90;;;15.33;100.00;95930.09;10482919;28;2573;-72
2022/09/11 13:22:20;;;;;;;;;;;15.90;99.90;;;16.24;100.00;95919.31;10496786;28;3149;-72
2022/09/11 13:27:25;;;;;;;;;;;16.30;99.90;;;17.31;100.00;95918.63;10477753;28;2795;-74
2022/09/11 13:32:28;;;;;;;;;;;16.80;99.90;;;17.94;100.00;95922.84;10483592;28;3320;-73
2022/09/11 13:37:31;;;;;;;;;;;17.50;99.90;;;18.27;100.00;95918.59;10483037;28;2694;-74
2022/09/11 13:42:34;;;;;;;;;;;18.20;99.90;;;18.19;100.00;95910.41;10463941;28;3179;-73
2022/09/11 13:47:38;;;;;;;;;;;18.40;99.90;;;17.64;100.00;95910.94;10480393;28;2568;-75
2022/09/11 13:52:44;;;;;;;;;;;18.30;99.90;;;17.75;100.00;95912.25;10480665;28;2820;-75
2022/09/11 13:57:47;;;;;;;;;;;18.10;99.90;;;17.85;100.00;95908.44;10480819;28;2737;-76
2022/09/11 14:02:51;;;;;;;;;;;18.20;99.90;;;18.14;100.00;95905.94;10478419;28;3175;-72
2022/09/11 14:07:55;;;;;;;;;;;18.30;99.90;;;17.94;100.00;95907.38;10480172;28;3147;-75
2022/09/11 14:12:58;;;;;;;;;;;18.50;99.90;;;17.91;100.00;95902.53;10484296;28;2806;-73
2022/09/11 14:18:02;;;;;;;;;;;18.60;99.90;;;18.07;100.00;95897.47;10483752;28;2641;-72
2022/09/11 14:23:05;;;;;;;;;;;18.70;99.90;;;18.05;100.00;95910.56;10478927;28;2737;-74
2022/09/11 14:28:08;;;;;;;;;;;18.70;99.90;;;18.07;100.00;95902.91;10482365;28;2758;-74
2022/09/11 14:33:11;;;;;;;;;;;18.60;99.90;;;18.61;100.00;95892.50;10482295;28;2753;-72
2022/09/11 14:38:14;;;;;;;;;;;18.80;99.90;;;18.28;100.00;95890.28;10485200;28;2897;-74
2022/09/11 14:43:19;;;;;;;;;;;19.00;99.90;;;17.96;100.00;95888.00;10477328;28;2707;-77
2022/09/11 14:48:22;;;;;;;;;;;18.80;99.90;;;17.94;100.00;95892.94;10485339;28;2629;-72
2022/09/11 14:53:25;;;;;;;;;;;18.70;99.90;;;17.74;100.00;95889.69;10485365;28;2805;-74
2022/09/11 14:58:28;;;;;;;;;;;18.60;99.90;;;17.66;100.00;95898.59;10484643;28;2694;-72
2022/09/11 15:03:31;;;;;;;;;;;18.40;99.90;;;17.47;100.00;95896.16;10476987;28;2718;-75
2022/09/11 15:08:34;;;;;;;;;;;18.40;99.90;;;17.22;100.00;95894.13;10483015;28;2546;-71
2022/09/11 15:13:37;;;;;;;;;;;18.10;99.90;;;17.13;100.00;95885.94;10481141;28;3081;-71
2022/09/11 15:18:59;;;;;;;;;;;17.90;99.90;;;17.16;100.00;95901.59;10480413;28;3232;-73
2022/09/11 15:24:04;;;;;;;;;;;18.00;99.90;;;17.20;100.00;95894.44;10479974;28;3155;-73
2022/09/11 15:29:08;;;;;;;;;;;17.90;99.90;;;17.15;100.00;95893.78;10485587;28;3223;-72
2022/09/11 15:34:11;;;;;;;;;;;18.00;99.90;;;17.32;100.00;95891.16;10489147;28;3156;-72
2022/09/11 15:39:14;;;;;;;;;;;17.90;99.90;;;17.42;100.00;95876.47;10489904;28;2651;-72
2022/09/11 15:44:18;;;;;;;;;;;18.10;99.90;;;17.51;100.00;95885.47;10489785;28;2606;-71
2022/09/11 15:49:21;;;;;;;;;;;18.20;99.90;;;17.32;100.00;95888.44;10490824;28;2733;-74
2022/09/11 15:54:24;;;;;;;;;;;18.20;99.90;;;17.16;100.00;95888.03;10490149;28;2761;-75
2022/09/11 15:59:27;;;;;;;;;;;18.00;99.90;;;17.15;100.00;95888.34;10488847;28;3011;-71
2022/09/11 16:04:33;;;;;;;;;;;17.90;99.90;;;17.07;100.00;95892.63;10469629;28;2621;-71
2022/09/11 16:09:37;;;;;;;;;;;17.90;99.90;;;17.13;100.00;95885.94;10487446;28;2630;-72
2022/09/11 16:14:40;;;;;;;;;;;17.90;99.90;;;16.92;100.00;95879.44;10472141;28;2591;-73
2022/09/11 16:19:43;;;;;;;;;;;17.80;99.90;;;16.78;100.00;95881.44;10485406;28;3459;-72
2022/09/11 16:24:46;;;;;;;;;;;17.70;99.90;;;16.80;100.00;95879.22;10482424;28;3330;-72
2022/09/11 16:29:49;;;;;;;;;;;17.60;99.90;;;16.65;100.00;95888.50;10487319;28;3289;-72
2022/09/11 16:35:12;;;;;;;;;;;17.50;99.90;;;16.51;100.00;95880.44;10485927;28;2820;-73
2022/09/11 16:40:15;;;;;;;;;;;17.40;99.90;;;16.47;100.00;95871.28;10487319;28;2828;-72
2022/09/11 16:45:18;;;;;;;;;;;17.30;99.90;;;16.21;100.00;95876.53;10482494;28;3267;-73
2022/09/11 16:50:23;;;;;;;;;;;17.30;99.90;;;16.01;100.00;95885.91;10485450;28;2870;-72
2022/09/11 16:55:25;;;;;;;;;;;17.00;99.90;;;15.76;100.00;95886.47;10480933;28;3406;-73
2022/09/11 17:00:28;;;;;;;;;;;16.90;99.90;;;15.69;100.00;95892.31;10465845;28;2992;-72
2022/09/11 17:05:31;;;;;;;;;;;16.80;99.90;;;15.65;100.00;95891.31;10486633;28;2899;-73
2022/09/11 17:10:34;;;;;;;;;;;16.60;99.90;;;15.64;100.00;95881.56;10484257;28;2749;-72
2022/09/11 17:15:37;;;;;;;;;;;16.60;99.90;;;15.57;100.00;95873.81;10464914;28;3303;-71
2022/09/11 17:20:41;;;;;;;;;;;16.50;99.90;;;15.40;100.00;95869.03;10484865;28;2840;-73
2022/09/11 17:25:44;;;;;;;;;;;16.30;99.90;;;15.20;100.00;95865.91;10482318;28;3280;-72
2022/09/11 17:30:47;;;;;;;;;;;16.30;99.90;;;15.04;100.00;95876.22;10484734;28;2851;-71
2022/09/11 17:35:50;;;;;;;;;;;16.10;99.90;;;14.91;100.00;95877.81;10486492;28;2902;-71
2022/09/11 17:40:55;;;;;;;;;;;16.00;99.90;;;14.83;100.00;95887.44;10485951;28;2753;-71
2022/09/11 17:45:58;;;;;;;;;;;15.90;99.90;;;14.83;100.00;95887.44;10489905;28;2806;-71
2022/09/11 17:51:01;;;;;;;;;;;15.90;99.90;;;14.79;100.00;95889.13;10470555;28;3413;-77
2022/09/11 17:56:04;;;;;;;;;;;15.90;99.90;;;14.76;100.00;95892.44;10482161;28;2911;-72
2022/09/11 18:01:07;;;;;;;;;;;15.80;99.90;;;14.79;100.00;95899.13;10482971;28;2879;-72
2022/09/11 18:06:13;;;;;;;;;;;15.80;99.90;;;14.79;100.00;95899.13;10478758;28;2776;-69
2022/09/11 18:11:16;;;;;;;;;;;15.80;99.90;;;14.78;100.00;95905.66;10469919;28;2761;-73
2022/09/11 18:16:18;;;;;;;;;;;15.70;99.90;;;14.76;100.00;95905.97;10483327;28;2933;-74
2022/09/11 18:21:21;;;;;;;;;;;15.90;99.90;;;14.69;100.00;95907.41;10483815;28;2875;-73
2022/09/11 18:26:24;;;;;;;;;;;15.80;99.90;;;14.51;100.00;95920.69;10485401;28;2686;-72
2022/09/11 18:31:35;;;;;;;;;;;15.60;99.90;;;14.28;100.00;95919.66;10482468;28;2788;-71
2022/09/11 18:36:38;;;;;;;;;;;15.50;99.90;;;14.08;100.00;95914.56;10463903;28;2859;-73
2022/09/11 18:41:43;;;;;;;;;;;15.30;99.90;;;13.88;100.00;95920.25;10479577;28;2844;-72
2022/09/11 18:46:46;;;;;;;;;;;15.20;99.90;;;13.72;100.00;95914.22;10479343;28;3358;-72
2022/09/11 18:51:49;;;;;;;;;;;15.00;99.90;;;13.61;100.00;95912.72;10480607;28;2879;-71
2022/09/11 18:56:52;;;;;;;;;;;14.80;99.90;;;13.51;100.00;95914.47;10481496;28;2718;-71
2022/09/11 19:01:55;;;;;;;;;;;14.80;99.90;;;13.37;100.00;95927.06;10467740;28;2757;-73
2022/09/11 19:06:58;;;;;;;;;;;15.30;99.90;;;13.35;100.00;95923.84;10486111;28;2798;-70
2022/09/11 19:12:02;;;;;;;;;;;14.50;99.90;;;13.42;100.00;95924.31;10488918;28;2902;-72
2022/09/11 19:17:05;;;;;;;;;;;14.50;99.90;;;13.47;100.00;95932.34;10471298;28;2907;-75
2022/09/11 19:22:08;;;;;;;;;;;14.50;99.90;;;13.33;100.00;95923.31;10493016;28;2876;-74
2022/09/11 19:27:11;;;;;;;;;;;14.60;99.90;;;13.28;100.00;95928.78;10491340;28;2793;-73
2022/09/11 19:32:15;;;;;;;;;;;14.50;99.90;;;13.19;100.00;95935.88;10488677;28;3364;-70
2022/09/11 19:37:18;;;;;;;;;;;14.40;99.90;;;13.09;100.00;95936.78;10490486;28;2843;-71
2022/09/11 19:42:22;;;;;;;;;;;14.30;99.90;;;13.06;100.00;95947.34;10489091;28;2717;-70
2022/09/11 19:47:25;;;;;;;;;;;14.30;99.90;;;12.93;100.00;95946.91;10490285;28;3312;-70
2022/09/11 19:52:28;;;;;;;;;;;14.20;99.90;;;12.80;100.00;95944.88;10486670;28;2799;-70
2022/09/11 19:57:35;;;;;;;;;;;14.00;99.90;;;12.78;100.00;95940.84;10471994;28;2891;-69
2022/09/11 20:02:38;;;;;;;;;;;14.00;99.90;;;12.71;100.00;95946.56;10488124;28;2788;-69
2022/09/11 20:07:40;;;;;;;;;;;13.90;99.90;;;12.63;100.00;95944.47;10486711;28;2843;-70
2022/09/11 20:12:43;;;;;;;;;;;13.80;99.90;;;12.64;100.00;95944.19;10479033;28;2779;-73
2022/09/11 20:17:47;;;;;;;;;;;13.80;99.90;;;12.58;100.00;95936.41;10490719;28;2860;-71
2022/09/11 20:22:50;;;;;;;;;;;13.70;99.90;;;12.51;100.00;95935.94;10490499;28;2827;-74
2022/09/11 20:27:58;;;;;;;;;;;13.60;99.90;;;12.41;100.00;95937.63;10487622;28;2788;-75
2022/09/11 20:33:04;;;;;;;;;;;13.60;99.90;;;12.35;100.00;95938.75;10492045;28;2819;-70
2022/09/11 20:38:07;;;;;;;;;;;13.50;99.90;;;12.28;100.00;95942.84;10497313;28;2752;-72
2022/09/11 20:43:10;;;;;;;;;;;13.50;99.90;;;12.23;100.00;95935.59;10490354;28;2789;-69
2022/09/11 20:48:13;;;;;;;;;;;13.40;99.90;;;12.14;100.00;95935.38;10492924;28;2780;-73
2022/09/11 20:53:21;;;;;;;;;;;13.30;99.90;;;12.09;100.00;95934.63;10501792;28;2761;-71
2022/09/11 20:58:24;;;;;;;;;;;13.20;99.90;;;11.98;100.00;95941.97;10487158;28;3351;-72
2022/09/11 21:03:27;;;;;;;;;;;13.20;99.90;;;11.93;100.00;95939.28;10485210;28;2891;-70
2022/09/11 21:08:29;;;;;;;;;;;13.10;99.90;;;11.93;100.00;95941.97;10488397;28;3431;-71
2022/09/11 21:13:32;;;;;;;;;;;13.10;99.90;;;11.88;100.00;95933.91;10483260;28;2886;-72
2022/09/11 21:18:35;;;;;;;;;;;13.00;99.90;;;11.82;100.00;95938.53;10480841;28;3293;-69
2022/09/11 21:23:38;;;;;;;;;;;13.00;99.90;;;11.78;100.00;95934.75;10486152;28;3362;-70
2022/09/11 21:28:40;;;;;;;;;;;12.90;99.90;;;11.70;100.00;95943.41;10484222;28;2757;-70
2022/09/11 21:33:43;;;;;;;;;;;12.80;99.90;;;11.63;100.00;95946.38;10485140;28;3359;-68
2022/09/11 21:38:46;;;;;;;;;;;12.80;99.90;;;11.57;100.00;95941.28;10485926;28;3259;-69
2022/09/11 21:43:49;;;;;;;;;;;12.80;99.90;;;11.55;100.00;95938.88;10482198;28;3396;-69
2022/09/11 21:48:51;;;;;;;;;;;12.70;99.90;;;11.50;100.00;95941.59;10486526;28;2793;-71
2022/09/11 21:53:56;;;;;;;;;;;12.60;99.90;;;11.43;100.00;95933.00;10468779;28;3402;-70
2022/09/11 21:58:59;;;;;;;;;;;12.60;99.90;;;11.47;100.00;95933.28;10487084;28;3451;-70
2022/09/11 22:04:01;;;;;;;;;;;12.50;99.90;;;11.46;100.00;95937.06;10482737;28;2789;-70
2022/09/11 22:09:04;;;;;;;;;;;12.50;99.90;;;11.42;100.00;95936.78;10486491;28;2722;-71
2022/09/11 22:14:19;;;;;;;;;;;12.60;99.90;;;11.35;100.00;95937.09;10484831;28;3308;-71
2022/09/11 22:19:21;;;;;;;;;;;12.60;99.90;;;11.35;100.00;95934.38;10485000;28;2880;-70
2022/09/11 22:24:24;;;;;;;;;;;12.40;99.90;;;11.37;100.00;95924.13;10482887;28;3419;-70
2022/09/11 22:29:27;;;;;;;;;;;12.40;99.90;;;11.36;100.00;95929.81;10466609;28;2713;-69
2022/09/11 22:34:30;;;;;;;;;;;12.50;99.90;;;11.27;100.00;95923.38;10485523;28;2779;-70
2022/09/11 22:39:33;;;;;;;;;;;12.50;99.90;;;11.23;100.00;95923.13;10483927;28;2859;-72
2022/09/11 22:44:36;;;;;;;;;;;12.50;99.90;;;11.16;100.00;95922.59;10486990;28;2823;-73
2022/09/11 22:49:38;;;;;;;;;;;12.40;99.90;;;11.15;100.00;95923.69;10493298;28;2827;-79
2022/09/11 22:54:42;;;;;;;;;;;12.30;99.90;;;11.07;100.00;95932.31;10485418;28;3273;-72
2022/09/11 22:59:46;;;;;;;;;;;12.30;99.90;;;10.98;100.00;95915.91;10488741;28;3303;-70